Time;durP1;ratioP1;P1;durP2;ratioP2;P2;SDS_P1;SDS_P2;PMS_P1;PMS_P2;Temp;Humidity;BMP_temperature;BMP_pressure;BME280_temperature;BME280_humidity;BME280_pressure;Samples;Min_cycle;Max_cycle;Signal;HPM_P1;HPM_P2
2022/05/13 00:02:22;;;;;;;7.53;2.92;;;11.70;99.90;;;;;;5025494;28;20084;-54
2022/05/13 00:04:47;;;;;;;9.20;3.75;;;11.70;99.90;;;;;;5014407;28;20502;-58
2022/05/13 00:07:13;;;;;;;6.70;3.50;;;11.60;99.90;;;;;;5023619;28;20479;-60
2022/05/13 00:09:56;;;;;;;7.00;2.90;;;11.60;99.90;;;;;;5024419;28;20106;-57
2022/05/13 00:12:30;;;;;;;10.25;3.50;;;11.50;99.90;;;;;;5023566;28;20481;-60
2022/05/13 00:14:57;;;;;;;9.88;3.00;;;11.30;99.90;;;;;;5030241;28;20034;-60
2022/05/13 00:17:25;;;;;;;6.70;2.92;;;11.30;99.90;;;;;;5030435;28;20124;-58
2022/05/13 00:19:51;;;;;;;10.95;2.97;;;11.30;99.90;;;;;;5018272;28;20025;-59
2022/05/13 00:22:18;;;;;;;8.35;3.22;;;11.20;99.90;;;;;;5022108;28;20040;-60
2022/05/13 00:24:44;;;;;;;10.35;3.65;;;11.10;99.90;;;;;;5024389;28;20021;-55
2022/05/13 00:27:10;;;;;;;8.45;4.28;;;11.10;99.90;;;;;;5031406;28;20026;-57
2022/05/13 00:29:36;;;;;;;8.07;2.90;;;11.10;99.90;;;;;;5019858;28;20043;-59
2022/05/13 00:32:02;;;;;;;7.15;3.10;;;11.00;99.90;;;;;;5028714;28;20958;-56
2022/05/13 00:34:28;;;;;;;10.07;3.10;;;11.00;99.90;;;;;;5026663;28;20030;-58
2022/05/13 00:36:53;;;;;;;11.02;3.22;;;11.00;99.90;;;;;;5023726;28;20032;-58
2022/05/13 00:39:19;;;;;;;11.82;3.13;;;10.90;99.90;;;;;;5023967;28;20037;-58
2022/05/13 00:41:46;;;;;;;14.95;2.55;;;10.80;99.90;;;;;;5025025;28;20522;-58
2022/05/13 00:44:13;;;;;;;8.32;3.10;;;10.80;99.90;;;;;;5027361;28;20170;-58
2022/05/13 00:46:38;;;;;;;5.47;3.05;;;10.70;99.90;;;;;;5026457;28;20064;-58
2022/05/13 00:49:07;;;;;;;8.35;3.85;;;10.70;99.90;;;;;;5019195;28;20426;-57
2022/05/13 00:51:42;;;;;;;10.85;3.08;;;10.70;99.90;;;;;;5025780;28;20034;-58
2022/05/13 00:54:11;;;;;;;12.25;3.60;;;10.70;99.90;;;;;;5026243;28;20044;-60
2022/05/13 00:56:42;;;;;;;15.13;3.42;;;10.70;99.90;;;;;;5021517;28;20014;-59
2022/05/13 00:59:09;;;;;;;9.95;3.45;;;10.70;99.90;;;;;;5031606;28;20021;-59
2022/05/13 01:01:34;;;;;;;11.07;3.45;;;10.70;99.90;;;;;;5030619;28;20025;-59
2022/05/13 01:04:07;;;;;;;11.57;4.35;;;10.70;99.90;;;;;;5025631;28;20517;-58
2022/05/13 01:06:34;;;;;;;9.10;3.20;;;10.70;99.90;;;;;;5022504;28;20042;-61
2022/05/13 01:09:01;;;;;;;8.52;3.90;;;10.70;99.90;;;;;;5022272;28;20032;-59
2022/05/13 01:11:29;;;;;;;9.38;3.80;;;10.70;99.90;;;;;;5028737;28;20025;-58
2022/05/13 01:14:00;;;;;;;11.13;3.67;;;10.70;99.90;;;;;;5028488;28;20032;-61
2022/05/13 01:16:26;;;;;;;11.23;3.40;;;10.80;99.90;;;;;;5016174;28;20394;-57
2022/05/13 01:18:52;;;;;;;14.70;3.75;;;10.80;99.90;;;;;;5025543;28;20048;-60
2022/05/13 01:21:25;;;;;;;8.15;3.58;;;10.80;99.90;;;;;;5021247;28;20049;-58
2022/05/13 01:23:52;;;;;;;9.43;3.25;;;10.80;99.90;;;;;;5020974;28;20022;-58
2022/05/13 01:26:22;;;;;;;8.10;3.50;;;10.80;99.90;;;;;;5022280;28;20018;-58
2022/05/13 01:28:51;;;;;;;10.05;3.22;;;10.90;99.90;;;;;;5019924;28;20033;-57
2022/05/13 01:31:26;;;;;;;14.73;3.80;;;11.00;99.90;;;;;;5023169;28;20029;-60
2022/05/13 01:33:52;;;;;;;11.95;3.05;;;11.00;99.90;;;;;;5025999;28;20026;-58
2022/05/13 01:36:18;;;;;;;8.75;3.50;;;11.00;99.90;;;;;;5028023;28;20026;-60
2022/05/13 01:38:44;;;;;;;9.20;3.25;;;11.00;99.90;;;;;;5022512;28;20059;-55
2022/05/13 01:41:11;;;;;;;8.77;3.60;;;11.00;99.90;;;;;;5017788;28;20030;-59
2022/05/13 01:43:38;;;;;;;5.75;3.33;;;10.90;99.90;;;;;;5024714;28;20037;-59
2022/05/13 01:46:04;;;;;;;8.43;3.80;;;10.80;99.90;;;;;;5027695;28;20026;-54
2022/05/13 01:48:30;;;;;;;6.53;3.35;;;10.70;99.90;;;;;;5025846;28;20064;-59
2022/05/13 01:50:56;;;;;;;6.10;3.95;;;10.60;99.90;;;;;;5024473;28;20056;-59
2022/05/13 01:53:22;;;;;;;6.43;3.60;;;10.50;99.90;;;;;;5023531;28;20042;-58
2022/05/13 01:55:48;;;;;;;7.07;3.78;;;10.50;99.90;;;;;;5027680;28;20036;-59
2022/05/13 01:58:17;;;;;;;6.70;3.40;;;10.50;99.90;;;;;;5022926;28;20026;-58
2022/05/13 02:00:44;;;;;;;12.88;3.63;;;10.50;99.90;;;;;;5027346;28;20030;-60
2022/05/13 02:05:55;;;;;;;12.75;4.72;;;10.70;99.90;;;;;;5007302;28;20476;-59
2022/05/13 02:08:21;;;;;;;12.15;4.22;;;10.80;99.90;;;;;;5027854;28;20096;-59
2022/05/13 02:10:46;;;;;;;9.48;3.38;;;10.80;99.90;;;;;;5028748;28;20551;-58
2022/05/13 02:13:14;;;;;;;6.88;3.33;;;10.90;99.90;;;;;;5025100;28;20032;-58
2022/05/13 02:15:39;;;;;;;10.20;3.75;;;10.80;99.90;;;;;;5019705;28;20048;-59
2022/05/13 02:18:06;;;;;;;8.07;3.35;;;10.60;99.90;;;;;;5024883;28;20475;-55
2022/05/13 02:20:32;;;;;;;7.05;3.78;;;10.60;99.90;;;;;;5027747;28;20032;-57
2022/05/13 02:22:58;;;;;;;5.40;3.38;;;10.50;99.90;;;;;;5026425;28;20038;-57
2022/05/13 02:25:24;;;;;;;7.60;3.63;;;10.50;99.90;;;;;;5030083;28;20021;-55
2022/05/13 02:27:49;;;;;;;7.93;3.90;;;10.40;99.90;;;;;;5024485;28;20021;-60
2022/05/13 02:30:16;;;;;;;6.35;3.35;;;10.40;99.90;;;;;;5017474;28;20077;-60
2022/05/13 02:32:41;;;;;;;7.57;2.95;;;10.40;99.90;;;;;;5028423;28;20060;-60
2022/05/13 02:35:07;;;;;;;8.10;3.50;;;10.40;99.90;;;;;;5021974;28;20822;-60
2022/05/13 02:37:33;;;;;;;13.57;3.45;;;10.40;99.90;;;;;;5027608;28;20403;-60
2022/05/13 02:39:59;;;;;;;9.45;4.15;;;10.40;99.90;;;;;;5019627;28;20030;-57
2022/05/13 02:42:24;;;;;;;8.38;4.20;;;10.40;99.90;;;;;;5020967;28;20060;-59
2022/05/13 02:44:50;;;;;;;9.75;4.00;;;10.40;99.90;;;;;;5021041;28;20056;-57
2022/05/13 02:47:16;;;;;;;13.43;4.13;;;10.40;99.90;;;;;;5019932;28;20030;-59
2022/05/13 02:49:41;;;;;;;9.20;4.40;;;10.40;99.90;;;;;;5020827;28;20230;-60
2022/05/13 02:52:11;;;;;;;10.68;4.35;;;10.20;99.90;;;;;;5014374;28;20030;-55
2022/05/13 02:54:38;;;;;;;7.50;3.83;;;10.20;99.90;;;;;;5023718;28;20102;-60
2022/05/13 02:57:04;;;;;;;10.80;4.18;;;10.10;99.90;;;;;;5024259;28;20017;-60
2022/05/13 02:59:30;;;;;;;13.07;4.57;;;10.10;99.90;;;;;;5028779;28;20020;-60
2022/05/13 03:01:55;;;;;;;8.95;4.03;;;10.00;99.90;;;;;;5028010;28;20022;-58
2022/05/13 03:04:22;;;;;;;10.52;4.15;;;10.10;99.90;;;;;;5023385;28;21688;-59
2022/05/13 03:06:48;;;;;;;16.73;4.85;;;10.20;99.90;;;;;;5008638;28;20091;-58
2022/05/13 03:09:13;;;;;;;11.95;4.75;;;10.20;99.90;;;;;;5028211;28;20429;-59
2022/05/13 03:11:39;;;;;;;8.52;3.55;;;10.30;99.90;;;;;;5030310;28;20107;-61
2022/05/13 03:14:04;;;;;;;12.20;4.60;;;10.40;99.90;;;;;;5023577;28;20030;-59
2022/05/13 03:16:31;;;;;;;8.60;4.20;;;10.40;99.90;;;;;;5027689;28;20096;-58
2022/05/13 03:18:58;;;;;;;11.85;4.53;;;10.50;99.90;;;;;;5027182;28;20524;-58
2022/05/13 03:21:25;;;;;;;7.28;3.28;;;10.50;99.90;;;;;;5033460;28;20475;-59
2022/05/13 03:23:51;;;;;;;6.18;3.55;;;10.60;99.90;;;;;;5025713;28;20033;-58
2022/05/13 03:26:19;;;;;;;15.57;4.03;;;10.60;99.90;;;;;;5033539;28;20041;-60
2022/05/13 03:28:45;;;;;;;11.27;3.78;;;10.70;99.90;;;;;;5029954;28;20087;-60
2022/05/13 03:31:11;;;;;;;11.77;3.20;;;10.80;99.90;;;;;;5027394;28;20073;-59
2022/05/13 03:33:38;;;;;;;14.05;3.17;;;10.80;99.90;;;;;;5028936;28;20021;-59
2022/05/13 03:36:04;;;;;;;13.38;3.75;;;10.90;99.90;;;;;;5024603;28;20022;-56
2022/05/13 03:38:29;;;;;;;7.85;2.15;;;11.00;99.90;;;;;;5026703;28;20026;-59
2022/05/13 03:40:55;;;;;;;7.57;2.22;;;11.10;99.90;;;;;;5030231;28;20494;-61
2022/05/13 03:43:20;;;;;;;6.13;1.95;;;11.10;99.90;;;;;;5028736;28;20030;-60
2022/05/13 03:45:46;;;;;;;4.97;2.42;;;11.20;99.90;;;;;;5030938;28;20121;-57
2022/05/13 03:48:12;;;;;;;7.45;1.95;;;11.20;99.90;;;;;;5026967;28;20038;-60
2022/05/13 03:50:40;;;;;;;8.13;2.10;;;11.30;99.90;;;;;;5026975;28;20029;-60
2022/05/13 03:53:06;;;;;;;7.15;2.28;;;11.20;99.90;;;;;;5031057;28;20475;-60
2022/05/13 03:55:33;;;;;;;7.75;1.92;;;11.20;99.90;;;;;;5020788;28;20052;-57
2022/05/13 03:57:59;;;;;;;9.10;2.13;;;11.10;99.90;;;;;;5026926;28;20028;-59
2022/05/13 04:00:25;;;;;;;8.75;1.90;;;11.00;99.90;;;;;;5030330;28;20017;-59
2022/05/13 04:02:51;;;;;;;10.05;2.20;;;10.90;99.90;;;;;;5029842;28;20026;-60
2022/05/13 04:10:45;;;;;;;;;;;10.80;99.90;;;;;;5027398;28;20665;-59
2022/05/13 04:16:04;;;;;;;8.10;2.30;;;10.80;99.90;;;;;;5029271;28;20441;-59
2022/05/13 04:18:39;;;;;;;6.15;1.92;;;10.80;99.90;;;;;;5020999;28;20101;-60
2022/05/13 04:21:12;;;;;;;5.22;2.05;;;10.90;99.90;;;;;;5031113;28;20076;-61
2022/05/13 04:23:40;;;;;;;6.05;1.92;;;10.90;99.90;;;;;;5026334;28;20043;-60
2022/05/13 04:26:06;;;;;;;7.25;1.80;;;11.10;99.90;;;;;;5031583;28;20087;-52
2022/05/13 04:28:32;;;;;;;7.15;2.20;;;11.20;99.90;;;;;;5028089;28;20038;-58
2022/05/13 04:31:01;;;;;;;5.80;1.90;;;11.30;99.90;;;;;;5020168;28;20108;-59
2022/05/13 04:33:26;;;;;;;9.27;2.10;;;11.40;99.90;;;;;;5026196;28;20041;-59
2022/05/13 04:35:52;;;;;;;8.18;2.05;;;11.60;99.90;;;;;;5031146;28;20026;-61
2022/05/13 04:38:18;;;;;;;6.60;2.35;;;11.80;99.90;;;;;;5028637;28;20083;-61
2022/05/13 04:40:44;;;;;;;7.10;2.33;;;11.70;99.90;;;;;;5030115;28;20475;-61
2022/05/13 04:43:09;;;;;;;8.52;1.92;;;11.70;99.90;;;;;;5027042;28;20041;-59
2022/05/13 04:45:35;;;;;;;7.85;2.08;;;11.80;99.90;;;;;;5024722;28;20033;-59
2022/05/13 04:48:16;;;;;;;7.93;2.35;;;12.00;99.90;;;;;;5027370;28;20828;-59
2022/05/13 04:50:58;;;;;;;14.77;2.35;;;12.40;99.90;;;;;;5023926;28;20021;-59
2022/05/13 04:53:29;;;;;;;9.10;1.67;;;12.30;99.90;;;;;;5028910;28;20041;-59
2022/05/13 04:55:56;;;;;;;9.90;1.98;;;12.20;99.90;;;;;;5017076;28;20049;-61
2022/05/13 04:58:22;;;;;;;7.50;2.03;;;12.10;99.90;;;;;;5028312;28;20056;-58
2022/05/13 05:00:50;;;;;;;9.15;1.98;;;12.10;99.90;;;;;;5022487;28;20440;-58
2022/05/13 05:03:17;;;;;;;10.68;2.03;;;11.90;99.90;;;;;;5024703;28;20083;-60
2022/05/13 05:05:43;;;;;;;13.40;2.50;;;12.10;99.90;;;;;;5024439;28;20494;-61
2022/05/13 05:08:10;;;;;;;10.02;2.25;;;12.50;99.90;;;;;;5013832;28;20178;-54
2022/05/13 05:10:36;;;;;;;9.63;2.47;;;12.40;99.90;;;;;;5021342;28;20121;-60
2022/05/13 05:13:02;;;;;;;7.60;1.70;;;12.60;99.90;;;;;;5025883;28;20044;-60
2022/05/13 05:15:27;;;;;;;8.55;1.88;;;12.50;99.90;;;;;;5030119;28;20402;-60
2022/05/13 05:17:53;;;;;;;11.43;2.05;;;12.60;99.90;;;;;;5021676;28;20132;-61
2022/05/13 05:20:20;;;;;;;11.77;2.67;;;12.60;99.90;;;;;;5028137;28;20026;-61
2022/05/13 05:22:46;;;;;;;11.68;2.30;;;12.70;99.90;;;;;;5025453;28;20018;-58
2022/05/13 05:25:17;;;;;;;9.70;2.13;;;12.70;99.90;;;;;;5026113;28;20030;-60
2022/05/13 05:27:42;;;;;;;7.88;2.35;;;13.20;99.90;;;;;;5031204;28;20391;-54
2022/05/13 05:30:10;;;;;;;6.60;1.95;;;13.80;99.20;;;;;;5027473;28;20026;-55
2022/05/13 05:32:37;;;;;;;10.13;2.35;;;14.20;98.20;;;;;;5027855;28;20510;-59
2022/05/13 05:35:04;;;;;;;8.18;2.33;;;14.20;98.00;;;;;;5025934;28;20033;-59
2022/05/13 05:37:29;;;;;;;8.35;2.00;;;14.00;97.70;;;;;;5029361;28;20503;-61
2022/05/13 05:39:55;;;;;;;9.40;2.17;;;13.90;97.80;;;;;;5028171;28;20083;-60
2022/05/13 05:42:20;;;;;;;6.18;2.00;;;13.60;98.00;;;;;;5028223;28;20026;-60
2022/05/13 05:44:46;;;;;;;9.50;2.58;;;13.60;98.30;;;;;;5027827;28;20137;-60
2022/05/13 05:47:11;;;;;;;7.68;1.90;;;13.50;98.50;;;;;;5029250;28;20025;-60
2022/05/13 05:49:37;;;;;;;8.27;2.35;;;13.50;98.60;;;;;;5026511;28;20537;-61
2022/05/13 05:52:03;;;;;;;8.20;2.50;;;13.50;98.60;;;;;;5029293;28;20029;-60
2022/05/13 05:57:15;;;;;;;10.88;2.33;;;13.90;97.60;;;;;;5025593;28;20083;-62
2022/05/13 05:59:42;;;;;;;7.35;2.17;;;14.30;97.70;;;;;;5023029;28;20495;-59
2022/05/13 06:02:08;;;;;;;6.35;1.92;;;14.20;97.30;;;;;;5029646;28;20040;-50
2022/05/13 06:04:36;;;;;;;9.55;2.17;;;14.10;97.30;;;;;;5022549;28;20116;-61
2022/05/13 06:07:06;;;;;;;12.25;2.20;;;14.10;97.90;;;;;;5006381;28;20100;-61
2022/05/13 06:09:31;;;;;;;13.07;2.65;;;14.10;98.10;;;;;;5024924;28;20041;-61
2022/05/13 06:11:57;;;;;;;10.88;2.40;;;13.90;97.70;;;;;;5026492;28;20037;-60
2022/05/13 06:14:22;;;;;;;11.85;2.30;;;13.90;97.80;;;;;;5018901;28;20080;-61
2022/05/13 06:16:48;;;;;;;8.32;2.20;;;13.70;98.10;;;;;;5028657;28;20022;-60
2022/05/13 06:19:14;;;;;;;10.05;2.47;;;13.60;98.20;;;;;;5025398;28;20052;-61
2022/05/13 06:21:40;;;;;;;9.23;2.33;;;13.70;98.90;;;;;;5028838;28;20553;-60
2022/05/13 06:24:06;;;;;;;17.67;3.95;;;14.20;98.00;;;;;;5018020;28;20105;-61
2022/05/13 06:26:32;;;;;;;19.67;2.60;;;14.80;97.00;;;;;;5022592;28;20037;-58
2022/05/13 06:28:57;;;;;;;12.18;2.70;;;15.60;97.00;;;;;;5028264;28;20035;-59
2022/05/13 06:31:24;;;;;;;10.80;2.67;;;16.40;94.50;;;;;;5030184;28;20053;-60
2022/05/13 06:33:50;;;;;;;7.65;2.70;;;16.80;93.70;;;;;;5021591;28;20127;-60
2022/05/13 06:36:16;;;;;;;8.82;3.47;;;16.70;92.70;;;;;;5016849;28;20026;-59
2022/05/13 06:38:42;;;;;;;8.40;3.00;;;16.60;92.80;;;;;;5026957;28;20040;-60
2022/05/13 06:41:08;;;;;;;12.85;2.83;;;16.70;93.30;;;;;;5027760;28;20076;-59
2022/05/13 06:43:34;;;;;;;10.73;2.92;;;17.10;91.70;;;;;;5021975;28;20037;-59
2022/05/13 06:46:00;;;;;;;19.73;3.92;;;17.10;91.90;;;;;;5027989;28;20033;-61
2022/05/13 06:48:25;;;;;;;10.38;2.42;;;17.20;91.10;;;;;;5026344;28;20398;-58
2022/05/13 06:50:51;;;;;;;12.13;3.05;;;17.60;91.60;;;;;;5025849;28;20028;-57
2022/05/13 06:53:19;;;;;;;10.05;2.60;;;17.20;91.10;;;;;;5022397;28;20026;-61
2022/05/13 06:55:45;;;;;;;12.15;2.85;;;17.30;91.10;;;;;;5020596;28;20625;-61
2022/05/13 06:58:14;;;;;;;8.25;2.35;;;17.90;90.50;;;;;;5027015;28;20030;-54
2022/05/13 07:00:41;;;;;;;13.07;2.10;;;19.20;87.60;;;;;;5028895;28;20513;-59
2022/05/13 07:03:12;;;;;;;11.02;2.50;;;20.10;84.00;;;;;;5023495;28;20025;-61
2022/05/13 07:05:37;;;;;;;11.38;2.67;;;21.00;80.70;;;;;;5028448;28;20068;-61
2022/05/13 07:08:03;;;;;;;7.32;1.90;;;21.00;78.30;;;;;;5006511;28;20046;-55
2022/05/13 07:10:28;;;;;;;13.07;3.03;;;21.90;78.50;;;;;;5025734;28;20033;-61
2022/05/13 07:12:54;;;;;;;9.95;1.83;;;22.20;76.40;;;;;;5022135;28;20028;-62
2022/05/13 07:15:20;;;;;;;8.75;2.10;;;22.90;74.30;;;;;;5021682;28;20108;-61
2022/05/13 07:17:47;;;;;;;11.05;2.47;;;21.80;73.30;;;;;;5021314;28;20021;-60
2022/05/13 07:20:14;;;;;;;8.90;2.30;;;21.60;74.10;;;;;;5025725;28;20598;-54
2022/05/13 07:22:40;;;;;;;6.85;2.03;;;21.70;73.90;;;;;;5025591;28;20037;-60
2022/05/13 07:25:06;;;;;;;7.50;2.38;;;22.10;73.20;;;;;;5020315;28;20052;-60
2022/05/13 07:27:32;;;;;;;9.07;2.20;;;22.40;72.40;;;;;;5028680;28;20043;-61
2022/05/13 07:29:57;;;;;;;10.18;2.53;;;22.70;69.90;;;;;;5026424;28;20037;-62
2022/05/13 07:32:23;;;;;;;8.77;2.00;;;23.60;72.20;;;;;;5028871;28;20442;-62
2022/05/13 07:34:49;;;;;;;8.73;2.20;;;24.40;67.80;;;;;;5021439;28;20072;-62
2022/05/13 07:37:14;;;;;;;10.40;2.03;;;24.30;66.70;;;;;;5028335;28;20121;-63
2022/05/13 07:42:25;;;;;;;9.68;2.17;;;26.20;62.50;;;;;;5028046;28;20679;-61
2022/05/13 07:44:50;;;;;;;9.85;2.58;;;25.80;61.20;;;;;;5025080;28;20021;-61
2022/05/13 07:47:17;;;;;;;11.07;2.33;;;26.30;61.30;;;;;;5028915;28;20045;-63
2022/05/13 07:49:43;;;;;;;6.35;1.75;;;25.60;60.90;;;;;;5028388;28;20034;-61
2022/05/13 07:52:10;;;;;;;10.45;2.00;;;25.50;62.10;;;;;;5028874;28;20034;-62
2022/05/13 07:54:35;;;;;;;9.48;1.77;;;24.70;60.70;;;;;;5016142;28;20064;-59
2022/05/13 07:57:02;;;;;;;7.15;1.77;;;24.00;62.30;;;;;;5025075;28;20061;-62
2022/05/13 07:59:30;;;;;;;6.05;1.85;;;24.50;64.00;;;;;;5023409;28;20034;-61
2022/05/13 08:01:56;;;;;;;9.38;2.33;;;23.30;63.80;;;;;;5024641;28;20035;-57
2022/05/13 08:04:21;;;;;;;7.90;1.73;;;22.60;65.40;;;;;;5028495;28;20395;-61
2022/05/13 08:06:47;;;;;;;13.77;2.88;;;22.90;65.40;;;;;;5013656;28;20033;-57
2022/05/13 08:09:13;;;;;;;6.82;1.58;;;23.40;65.30;;;;;;5028454;28;20083;-62
2022/05/13 08:11:38;;;;;;;7.32;1.40;;;23.90;64.10;;;;;;5026738;28;20040;-61
2022/05/13 08:14:04;;;;;;;4.05;1.52;;;23.30;64.70;;;;;;5020009;28;20672;-61
2022/05/13 08:16:32;;;;;;;7.75;1.73;;;23.20;63.10;;;;;;5022147;28;20057;-61
2022/05/13 08:18:58;;;;;;;7.35;1.30;;;22.50;63.50;;;;;;5030655;28;20390;-61
2022/05/13 08:21:24;;;;;;;9.82;1.85;;;22.30;65.10;;;;;;5029781;28;20021;-61
2022/05/13 08:23:50;;;;;;;8.75;1.75;;;22.30;65.20;;;;;;5030097;28;20055;-62
2022/05/13 08:26:17;;;;;;;4.78;1.20;;;22.80;64.70;;;;;;5028467;28;20029;-61
2022/05/13 08:28:43;;;;;;;12.45;2.40;;;22.70;63.80;;;;;;5028461;28;20044;-62
2022/05/13 08:31:09;;;;;;;6.93;1.65;;;23.00;65.10;;;;;;5030958;28;20021;-60
2022/05/13 08:33:36;;;;;;;6.57;1.30;;;23.10;63.20;;;;;;5021950;28;20382;-60
2022/05/13 08:36:04;;;;;;;3.90;1.50;;;22.30;65.80;;;;;;5030902;28;20032;-61
2022/05/13 08:38:33;;;;;;;9.95;1.48;;;22.50;65.40;;;;;;5029653;28;20405;-60
2022/05/13 08:41:14;;;;;;;10.98;1.77;;;21.90;65.20;;;;;;5020711;28;20092;-61
2022/05/13 08:43:47;;;;;;;4.97;1.73;;;22.00;64.00;;;;;;5029538;28;20029;-61
2022/05/13 08:46:42;;;;;;;11.52;1.60;;;22.40;63.00;;;;;;5030575;28;20300;-57
2022/05/13 08:49:35;;;;;;;7.50;1.40;;;22.30;63.10;;;;;;5026740;28;20426;-55
2022/05/13 08:54:59;;;;;;;7.35;1.33;;;22.00;65.10;;;;;;5025167;28;20034;-60
2022/05/13 08:57:31;;;;;;;13.10;1.60;;;21.60;65.90;;;;;;5030324;28;20017;-59
2022/05/13 09:00:15;;;;;;;6.78;1.90;;;21.90;63.70;;;;;;5018704;28;20104;-60
2022/05/13 09:02:46;;;;;;;15.48;1.80;;;22.20;63.20;;;;;;5023544;28;20052;-62
2022/05/13 09:05:31;;;;;;;3.13;1.30;;;22.00;64.00;;;;;;5026026;28;20026;-61
2022/05/13 09:07:57;;;;;;;6.35;1.52;;;21.80;65.30;;;;;;5007300;28;20103;-61
2022/05/13 09:10:25;;;;;;;6.45;2.03;;;21.40;65.30;;;;;;5026959;28;20035;-62
2022/05/13 09:13:17;;;;;;;7.88;1.85;;;21.90;64.90;;;;;;5017338;28;20088;-61
2022/05/13 09:15:52;;;;;;;11.35;2.47;;;21.60;64.80;;;;;;5029967;28;20113;-59
2022/05/13 09:18:50;;;;;;;8.32;1.58;;;21.50;64.00;;;;;;5017869;28;21153;-59
2022/05/13 09:21:19;;;;;;;7.32;1.77;;;21.40;64.80;;;;;;5020963;28;20407;-61
2022/05/13 09:23:45;;;;;;;3.67;1.23;;;22.00;63.80;;;;;;5023117;28;20021;-61
2022/05/13 09:26:18;;;;;;;8.43;1.83;;;22.20;63.90;;;;;;5024579;28;20030;-61
2022/05/13 09:29:10;;;;;;;8.07;1.60;;;22.60;63.60;;;;;;5021671;28;20052;-61
2022/05/13 09:31:46;;;;;;;5.80;1.40;;;23.40;61.50;;;;;;5025774;28;20100;-59
2022/05/13 09:34:29;;;;;;;7.03;1.30;;;23.20;61.30;;;;;;5023788;28;20079;-61
2022/05/13 09:37:06;;;;;;;3.40;1.05;;;23.80;61.50;;;;;;5011584;28;20021;-62
2022/05/13 09:39:43;;;;;;;9.85;1.40;;;23.50;60.30;;;;;;5028077;28;20033;-62
2022/05/13 09:42:24;;;;;;;10.88;1.60;;;24.20;60.60;;;;;;5018524;28;20033;-62
2022/05/13 09:44:51;;;;;;;7.97;1.63;;;25.10;60.80;;;;;;5019849;28;20100;-59
2022/05/13 09:47:29;;;;;;;4.93;1.30;;;25.20;59.20;;;;;;5020342;28;20025;-62
2022/05/13 09:49:54;;;;;;;8.98;1.60;;;24.70;58.20;;;;;;5019176;28;20036;-61
2022/05/13 09:52:32;;;;;;;5.70;1.27;;;24.90;57.80;;;;;;5025641;28;20025;-61
2022/05/13 09:55:24;;;;;;;7.40;1.55;;;25.20;58.10;;;;;;5019903;28;20034;-61
2022/05/13 09:57:52;;;;;;;6.13;1.52;;;24.40;56.00;;;;;;5018111;28;20037;-61
2022/05/13 10:00:30;;;;;;;5.85;1.40;;;24.20;59.10;;;;;;5027681;28;20029;-59
2022/05/13 10:03:16;;;;;;;4.30;1.40;;;23.10;57.90;;;;;;5026826;28;20032;-60
2022/05/13 10:05:42;;;;;;;8.20;1.65;;;23.10;59.80;;;;;;5022645;28;20029;-60
2022/05/13 10:08:17;;;;;;;3.13;0.98;;;22.90;58.90;;;;;;5006747;28;20655;-59
2022/05/13 10:14:22;;;;;;;6.43;1.02;;;22.20;61.60;;;;;;5005626;28;20049;-60
2022/05/13 10:16:50;;;;;;;4.45;1.42;;;21.90;62.10;;;;;;5028818;28;20037;-60
2022/05/13 10:19:32;;;;;;;6.15;1.10;;;21.80;62.30;;;;;;5026031;28;20104;-61
2022/05/13 10:22:16;;;;;;;5.43;1.20;;;22.30;62.20;;;;;;5021460;28;20451;-61
2022/05/13 10:25:05;;;;;;;6.35;1.40;;;21.90;60.40;;;;;;5021481;28;20057;-61
2022/05/13 10:27:53;;;;;;;10.48;1.10;;;22.20;61.50;;;;;;5019982;28;20038;-61
2022/05/13 10:30:58;;;;;;;11.40;1.23;;;22.40;61.10;;;;;;5027383;28;20026;-61
2022/05/13 10:33:38;;;;;;;6.38;1.23;;;22.40;60.00;;;;;;4996799;28;20056;-61
2022/05/13 10:36:17;;;;;;;10.50;1.60;;;22.40;60.90;;;;;;5025839;28;20013;-59
2022/05/13 10:38:46;;;;;;;5.78;1.20;;;22.10;61.40;;;;;;5024227;28;20034;-60
2022/05/13 10:41:37;;;;;;;3.22;1.10;;;22.50;61.40;;;;;;5028094;28;20029;-58
2022/05/13 10:44:14;;;;;;;7.40;1.48;;;22.30;60.70;;;;;;5023798;28;20458;-61
2022/05/13 10:46:49;;;;;;;6.20;1.30;;;22.70;62.60;;;;;;5022808;28;20104;-62
2022/05/13 10:49:15;;;;;;;7.30;1.48;;;22.60;60.80;;;;;;5027087;28;20947;-61
2022/05/13 10:51:46;;;;;;;4.68;1.02;;;22.40;60.90;;;;;;5023258;28;20060;-58
2022/05/13 10:54:30;;;;;;;6.88;1.30;;;22.20;60.50;;;;;;5014112;28;20029;-60
2022/05/13 10:57:26;;;;;;;9.65;1.55;;;22.10;61.70;;;;;;5026880;28;20113;-58
2022/05/13 11:00:05;;;;;;;7.07;0.98;;;21.90;61.60;;;;;;5025899;28;20038;-54
2022/05/13 11:02:34;;;;;;;5.88;1.50;;;21.70;62.60;;;;;;5029527;28;20085;-60
2022/05/13 11:05:13;;;;;;;5.53;1.20;;;21.70;62.60;;;;;;5025240;28;20104;-62
2022/05/13 11:08:00;;;;;;;3.42;1.30;;;21.70;62.80;;;;;;5001632;28;20054;-60
2022/05/13 11:10:51;;;;;;;5.15;1.52;;;21.60;63.10;;;;;;5023179;28;20026;-58
2022/05/13 11:13:38;;;;;;;3.95;1.35;;;21.80;63.70;;;;;;5025605;28;20104;-59
2022/05/13 11:16:22;;;;;;;4.75;2.20;;;22.30;63.20;;;;;;5024667;28;20447;-59
2022/05/13 11:19:06;;;;;;;2.55;1.20;;;22.20;62.70;;;;;;5016545;28;20036;-58
2022/05/13 11:21:54;;;;;;;5.38;2.17;;;22.60;62.90;;;;;;5022898;28;20034;-61
2022/05/13 11:27:43;;;;;;;7.20;1.40;;;22.20;63.60;;;;;;5026600;28;20166;-60
2022/05/13 11:30:18;;;;;;;3.92;1.55;;;22.30;65.00;;;;;;5024689;28;20079;-62
2022/05/13 11:32:55;;;;;;;6.47;1.42;;;22.30;63.40;;;;;;5027749;28;20057;-59
2022/05/13 11:35:41;;;;;;;6.38;1.70;;;22.40;61.80;;;;;;5027977;28;20491;-61
2022/05/13 11:38:24;;;;;;;9.95;1.05;;;22.40;62.30;;;;;;5029476;28;20034;-61
2022/05/13 11:41:08;;;;;;;5.35;1.40;;;22.10;63.30;;;;;;5031962;28;20017;-60
2022/05/13 11:43:58;;;;;;;10.45;1.58;;;21.60;63.10;;;;;;5029068;28;20032;-60
2022/05/13 11:46:35;;;;;;;10.40;1.40;;;22.00;64.40;;;;;;5032728;28;20025;-60
2022/05/13 11:49:32;;;;;;;16.27;1.60;;;22.10;63.10;;;;;;5026050;28;20102;-59
2022/05/13 11:52:29;;;;;;;8.68;1.40;;;22.20;64.30;;;;;;5030094;28;20432;-58
2022/05/13 11:55:33;;;;;;;8.02;1.58;;;22.30;63.50;;;;;;5017722;28;20025;-60
2022/05/13 11:57:58;;;;;;;9.27;1.50;;;22.40;62.70;;;;;;5030343;28;20083;-58
2022/05/13 12:00:30;;;;;;;4.80;1.00;;;22.50;62.90;;;;;;5031609;28;20387;-60
2022/05/13 12:03:07;;;;;;;4.72;1.60;;;22.10;63.90;;;;;;5029725;28;20026;-58
2022/05/13 12:05:54;;;;;;;8.90;1.90;;;22.40;65.50;;;;;;5022712;28;20089;-58
2022/05/13 12:08:31;;;;;;;3.67;1.30;;;22.20;64.00;;;;;;5011903;28;20052;-58
2022/05/13 12:11:02;;;;;;;7.50;1.40;;;22.20;63.10;;;;;;5026949;28;20437;-59
2022/05/13 12:13:37;;;;;;;5.45;1.63;;;22.30;64.30;;;;;;5025427;28;20104;-59
2022/05/13 12:16:02;;;;;;;9.80;1.63;;;22.50;64.20;;;;;;5027963;28;20030;-59
2022/05/13 12:18:34;;;;;;;7.45;1.75;;;22.10;63.40;;;;;;5025318;28;20034;-58
2022/05/13 12:21:30;;;;;;;5.10;1.73;;;22.10;64.30;;;;;;5023301;28;20403;-59
2022/05/13 12:24:09;;;;;;;7.28;1.58;;;22.20;62.60;;;;;;5023690;28;20645;-58
2022/05/13 12:26:53;;;;;;;7.53;1.35;;;21.80;64.40;;;;;;5022773;28;20090;-61
2022/05/13 12:29:25;;;;;;;8.25;1.55;;;21.70;63.70;;;;;;5018176;28;20044;-59
2022/05/13 12:31:53;;;;;;;3.33;1.50;;;21.50;65.70;;;;;;5029087;28;20040;-58
2022/05/13 12:37:34;;;;;;;4.45;1.48;;;21.10;65.50;;;;;;5027062;28;20059;-58
2022/05/13 12:40:00;;;;;;;5.28;1.38;;;20.90;65.50;;;;;;5024036;28;20044;-59
2022/05/13 12:42:46;;;;;;;7.32;1.70;;;21.20;65.90;;;;;;5028726;28;20096;-56
2022/05/13 12:45:20;;;;;;;4.25;1.40;;;21.20;64.90;;;;;;5028416;28;20796;-57
2022/05/13 12:48:14;;;;;;;3.55;1.45;;;21.50;64.40;;;;;;5024199;28;20030;-57
2022/05/13 12:51:18;;;;;;;10.30;2.47;;;21.70;64.90;;;;;;5024911;28;20041;-59
2022/05/13 12:53:56;;;;;;;7.65;1.65;;;21.70;63.70;;;;;;5022236;28;20560;-59
2022/05/13 12:56:33;;;;;;;7.78;1.63;;;21.10;65.80;;;;;;5015508;28;20038;-57
2022/05/13 12:59:01;;;;;;;8.30;1.40;;;21.00;65.70;;;;;;5020798;28;20014;-57
2022/05/13 13:01:28;;;;;;;5.93;1.23;;;21.10;64.80;;;;;;5025449;28;20056;-58
2022/05/13 13:03:54;;;;;;;9.27;1.42;;;20.90;68.10;;;;;;5022139;28;20033;-60
2022/05/13 13:06:21;;;;;;;6.18;1.75;;;21.10;67.30;;;;;;5028147;28;20029;-55
2022/05/13 13:08:51;;;;;;;10.70;1.65;;;21.00;66.40;;;;;;5012342;28;20103;-58
2022/05/13 13:11:35;;;;;;;6.80;1.85;;;21.20;66.00;;;;;;5030030;28;20032;-58
2022/05/13 13:14:12;;;;;;;6.13;1.50;;;21.20;66.10;;;;;;5025830;28;20839;-61
2022/05/13 13:16:56;;;;;;;6.03;1.90;;;21.20;66.40;;;;;;5024556;28;20096;-55
2022/05/13 13:19:25;;;;;;;10.05;3.33;;;21.10;66.30;;;;;;5026736;28;20356;-58
2022/05/13 13:22:03;;;;;;;5.70;2.83;;;20.90;65.40;;;;;;5030419;28;20403;-55
2022/05/13 13:24:33;;;;;;;14.07;3.53;;;20.70;66.60;;;;;;5023910;28;20056;-61
2022/05/13 13:26:59;;;;;;;5.13;2.40;;;20.80;67.80;;;;;;5024861;28;20116;-58
2022/05/13 13:29:31;;;;;;;6.53;2.17;;;20.70;67.20;;;;;;5026105;28;20534;-59
2022/05/13 13:32:03;;;;;;;4.38;2.10;;;20.70;68.60;;;;;;5024497;28;20044;-58